createdAt,value
2022-11-27T00:01:10.927Z,101631.03
2022-11-27T00:04:13.955Z,101631.94
2022-11-27T00:07:16.783Z,101631.03
2022-11-27T00:10:19.742Z,101623.88
2022-11-27T00:13:23.930Z,101617.59
2022-11-27T00:16:27.720Z,101608.66
2022-11-27T00:19:30.539Z,101607.78
2022-11-27T00:22:33.294Z,101606.88
2022-11-27T00:25:36.029Z,101603.31
2022-11-27T00:28:40.246Z,101601.50
2022-11-27T00:31:43.049Z,101604.16
2022-11-27T00:34:45.884Z,101598.81
2022-11-27T00:37:48.647Z,101590.75
2022-11-27T00:40:51.373Z,101586.28
2022-11-27T00:43:56.437Z,101581.84
2022-11-27T00:46:59.202Z,101570.25
2022-11-27T00:50:01.991Z,101573.81
2022-11-27T00:53:04.736Z,101569.34
2022-11-27T00:56:08.095Z,101571.13
2022-11-27T00:59:12.653Z,101576.50
2022-11-27T01:02:15.459Z,101568.44
2022-11-27T01:05:18.294Z,101572.88
2022-11-27T01:08:21.269Z,101570.19
2022-11-27T01:11:26.642Z,101571.09
2022-11-27T01:14:30.843Z,101563.91
2022-11-27T01:17:33.724Z,101563.91
2022-11-27T01:20:39.362Z,101568.38
2022-11-27T01:23:42.312Z,101568.38
2022-11-27T01:26:46.065Z,101565.66
2022-11-27T01:29:50.137Z,101556.72
2022-11-27T01:32:52.971Z,101560.31
2022-11-27T01:35:57.303Z,101551.34
2022-11-27T01:39:01.114Z,101535.28
2022-11-27T01:42:04.374Z,101531.69
2022-11-27T01:45:11.958Z,101528.13
2022-11-27T01:48:15.579Z,101531.72
2022-11-27T01:51:19.515Z,101514.75
2022-11-27T01:54:23.987Z,101525.47
2022-11-27T01:57:29.795Z,101526.38
2022-11-27T02:00:34.327Z,101526.38
2022-11-27T02:03:37.287Z,101529.94
2022-11-27T02:06:40.311Z,101491.53
2022-11-27T02:09:43.275Z,101517.41
2022-11-27T02:12:54.404Z,101513.00
2022-11-27T02:16:15.069Z,101513.88
2022-11-27T02:19:34.356Z,101515.66
2022-11-27T02:22:51.466Z,101520.16
2022-11-27T02:26:10.756Z,101519.25
2022-11-27T02:29:16.593Z,101509.44
2022-11-27T02:32:24.578Z,101505.84
2022-11-27T02:35:30.828Z,101506.75
2022-11-27T02:38:39.292Z,101507.66
2022-11-27T02:41:49.570Z,101514.81
2022-11-27T02:44:59.541Z,101515.69
2022-11-27T02:48:02.386Z,101512.13
2022-11-27T02:51:07.532Z,101512.13
2022-11-27T02:54:14.826Z,101496.91
2022-11-27T02:57:19.887Z,101504.97
2022-11-27T03:00:25.126Z,101504.97
2022-11-27T03:03:32.840Z,101508.53
2022-11-27T03:06:40.496Z,101509.44
2022-11-27T03:09:47.385Z,101473.69
2022-11-27T03:12:50.708Z,101496.91
2022-11-27T03:16:09.899Z,101496.91
2022-11-27T03:19:18.600Z,101488.84
2022-11-27T03:22:21.489Z,101475.47
2022-11-27T03:25:24.931Z,101487.09
2022-11-27T03:28:29.673Z,101493.34
2022-11-27T03:31:34.278Z,101482.63
2022-11-27T03:34:37.763Z,101487.09
2022-11-27T03:37:40.778Z,101484.38
2022-11-27T03:40:50.757Z,101488.00
2022-11-27T03:44:06.777Z,101491.53
2022-11-27T03:47:19.149Z,101487.09
2022-11-27T03:50:33.117Z,101486.19
2022-11-27T03:53:48.440Z,101479.03
2022-11-27T03:56:57.744Z,101489.72
2022-11-27T04:00:04.926Z,101488.84
2022-11-27T04:03:11.143Z,101488.81
2022-11-27T04:06:13.915Z,101495.06
2022-11-27T04:09:17.005Z,101505.78
2022-11-27T04:12:19.705Z,101504.88
2022-11-27T04:15:22.579Z,101499.50
2022-11-27T04:18:26.627Z,101496.81
2022-11-27T04:21:29.352Z,101495.94
2022-11-27T04:24:32.049Z,101487.03
2022-11-27T04:27:34.816Z,101482.53
2022-11-27T04:30:37.818Z,101473.59
2022-11-27T04:33:42.527Z,101480.72
2022-11-27T04:36:46.582Z,101474.50
2022-11-27T04:39:49.233Z,101471.78
2022-11-27T04:42:52.160Z,101473.59
2022-11-27T04:45:54.891Z,101471.81
2022-11-27T04:48:59.087Z,101460.19
2022-11-27T04:52:02.023Z,101457.50
2022-11-27T04:55:05.338Z,101454.81
2022-11-27T04:58:08.095Z,101450.34
2022-11-27T05:01:10.929Z,101454.78
2022-11-27T05:04:15.052Z,101450.31
2022-11-27T05:07:17.771Z,101451.19
2022-11-27T05:10:20.467Z,101454.78
2022-11-27T05:13:23.185Z,101446.72
2022-11-27T05:16:25.963Z,101439.59
2022-11-27T05:19:31.707Z,101445.88
2022-11-27T05:22:34.481Z,101448.56
2022-11-27T05:25:37.347Z,101443.19
2022-11-27T05:28:40.058Z,101451.22
2022-11-27T05:31:44.285Z,101443.16
2022-11-27T05:34:49.634Z,101443.13
2022-11-27T05:37:52.366Z,101428.81
2022-11-27T05:40:55.087Z,101426.13
2022-11-27T05:43:57.809Z,101434.16
2022-11-27T05:47:00.561Z,101428.78
2022-11-27T05:50:05.467Z,101430.56
2022-11-27T05:53:08.481Z,101424.34
2022-11-27T05:56:14.455Z,101423.44
2022-11-27T05:59:17.154Z,101418.94
2022-11-27T06:02:22.695Z,101418.94
2022-11-27T06:05:30.505Z,101429.66
2022-11-27T06:08:33.278Z,101426.97
2022-11-27T06:11:35.981Z,101425.19
2022-11-27T06:14:39.023Z,101435.88
2022-11-27T06:17:42.081Z,101440.31
2022-11-27T06:20:52.747Z,101439.47
2022-11-27T06:23:56.995Z,101451.13
2022-11-27T06:26:59.734Z,101439.50
2022-11-27T06:30:03.153Z,101433.25
2022-11-27T06:33:05.885Z,101436.81
2022-11-27T06:36:11.026Z,101440.41
2022-11-27T06:39:13.789Z,101434.13
2022-11-27T06:42:16.622Z,101421.63
2022-11-27T06:45:19.307Z,101420.72
2022-11-27T06:48:22.013Z,101418.00
2022-11-27T06:51:27.800Z,101418.91
2022-11-27T06:54:30.528Z,101419.81
2022-11-27T06:57:33.212Z,101418.06
2022-11-27T07:00:36.048Z,101404.66
2022-11-27T07:03:38.859Z,101394.00
2022-11-27T07:06:43.630Z,101405.63
2022-11-27T07:09:46.507Z,101391.31
2022-11-27T07:12:49.353Z,101379.75
2022-11-27T07:15:52.080Z,101375.28
2022-11-27T07:18:56.027Z,101369.91
2022-11-27T07:22:00.070Z,101371.69
2022-11-27T07:25:04.254Z,101369.03
2022-11-27T07:28:06.933Z,101372.56
2022-11-27T07:31:09.833Z,101369.03
2022-11-27T07:34:17.076Z,101369.91
2022-11-27T07:37:25.220Z,101367.19
2022-11-27T07:40:28.078Z,101355.56
2022-11-27T07:43:31.573Z,101370.75
2022-11-27T07:46:34.349Z,101368.97
2022-11-27T07:49:37.045Z,101366.34
2022-11-27T07:52:42.298Z,101367.25
2022-11-27T07:55:45.163Z,101337.88
2022-11-27T07:58:48.531Z,101339.63
2022-11-27T08:01:51.317Z,101336.97
2022-11-27T08:04:54.122Z,101345.84
2022-11-27T08:08:00.825Z,101341.38
2022-11-27T08:11:03.613Z,101345.81
2022-11-27T08:14:08.215Z,101350.28
2022-11-27T08:17:13.780Z,101348.44
2022-11-27T08:20:16.601Z,101349.34
2022-11-27T08:23:20.622Z,101336.88
2022-11-27T08:26:23.321Z,101338.69
2022-11-27T08:29:31.158Z,101331.56
2022-11-27T08:32:40.085Z,101327.94
2022-11-27T08:35:49.199Z,101305.66
2022-11-27T08:38:53.401Z,101340.50
2022-11-27T08:41:56.245Z,101345.88
2022-11-27T08:44:58.936Z,101341.44
2022-11-27T08:48:01.947Z,101338.78
2022-11-27T08:51:08.082Z,101342.34
2022-11-27T08:54:12.769Z,101353.91
2022-11-27T08:57:15.547Z,101337.88
2022-11-27T09:00:22.425Z,101341.47
2022-11-27T09:03:27.769Z,101334.31
2022-11-27T09:06:33.204Z,101317.34
2022-11-27T09:09:37.406Z,101327.16
2022-11-27T09:12:43.381Z,101319.16
2022-11-27T09:15:46.401Z,101309.34
2022-11-27T09:18:51.535Z,101298.63
2022-11-27T09:21:54.339Z,101311.09
2022-11-27T09:24:58.403Z,101314.69
2022-11-27T09:28:02.213Z,101314.66
2022-11-27T09:31:07.789Z,101310.16
2022-11-27T09:34:10.517Z,101309.28
2022-11-27T09:37:13.317Z,101303.91
2022-11-27T09:40:18.746Z,101294.97
2022-11-27T09:43:29.477Z,101283.34
2022-11-27T09:46:38.145Z,101274.38
2022-11-27T09:49:44.393Z,101267.19
2022-11-27T09:52:52.142Z,101260.84
2022-11-27T09:55:59.644Z,101241.97
2022-11-27T09:59:03.818Z,101226.69
2022-11-27T10:02:16.609Z,101234.50
2022-11-27T10:05:23.799Z,101232.56
2022-11-27T10:08:37.459Z,101232.44
2022-11-27T10:11:53.757Z,101225.34
2022-11-27T10:15:05.780Z,101218.31
2022-11-27T10:18:15.808Z,101221.97
2022-11-27T10:21:28.437Z,101227.34
2022-11-27T10:24:38.965Z,101207.72
2022-11-27T10:27:49.259Z,101205.84
2022-11-27T10:30:56.818Z,101205.00
2022-11-27T10:34:03.725Z,101208.41
2022-11-27T10:37:13.646Z,101198.56
2022-11-27T10:40:24.363Z,101197.66
2022-11-27T10:43:28.472Z,101181.41
2022-11-27T10:46:37.205Z,101171.69
2022-11-27T10:49:41.931Z,101182.44
2022-11-27T10:52:52.500Z,101172.50
2022-11-27T10:56:16.005Z,101150.72
2022-11-27T10:59:27.670Z,101159.59
2022-11-27T11:02:34.384Z,101156.16
2022-11-27T11:05:57.372Z,101156.88
2022-11-27T11:09:05.937Z,101145.16
2022-11-27T11:12:09.613Z,101125.28
2022-11-27T11:15:14.869Z,101121.75
2022-11-27T11:18:18.720Z,101117.34
2022-11-27T11:21:27.661Z,101107.41
2022-11-27T11:24:32.057Z,101100.25
2022-11-27T11:27:34.996Z,101098.13
2022-11-27T11:30:39.638Z,101089.88
2022-11-27T11:33:53.028Z,101039.84
2022-11-27T11:37:02.035Z,101082.22
2022-11-27T11:40:14.652Z,101060.31
2022-11-27T11:43:26.909Z,101067.56
2022-11-27T11:46:33.767Z,101050.22
2022-11-27T11:49:37.198Z,101041.38
2022-11-27T11:52:53.629Z,101041.41
2022-11-27T11:56:06.886Z,101050.38
2022-11-27T11:59:18.462Z,101050.00
2022-11-27T12:02:41.341Z,101047.09
2022-11-27T12:05:58.629Z,101037.13
2022-11-27T12:09:17.102Z,101036.94
2022-11-27T12:12:36.562Z,101033.63
2022-11-27T12:15:45.750Z,101033.69
2022-11-27T12:19:03.826Z,101025.69
2022-11-27T12:22:19.683Z,101020.28
2022-11-27T12:25:33.485Z,101016.53
2022-11-27T12:28:58.849Z,101001.50
2022-11-27T12:32:28.233Z,100994.19
2022-11-27T12:35:39.632Z,100973.34
2022-11-27T12:38:58.295Z,100985.28
2022-11-27T12:42:12.493Z,100982.78
2022-11-27T12:45:19.952Z,100977.13
2022-11-27T12:48:28.094Z,100973.44
2022-11-27T12:51:37.286Z,100966.84
2022-11-27T12:54:47.480Z,100961.59
2022-11-27T12:57:54.964Z,100954.34
2022-11-27T13:01:03.317Z,100953.69
2022-11-27T13:04:19.122Z,100953.63
2022-11-27T13:07:27.932Z,100957.06
2022-11-27T13:10:36.947Z,100947.31
2022-11-27T13:13:44.301Z,100945.59
2022-11-27T13:16:51.308Z,100949.22
2022-11-27T13:19:54.420Z,100939.09
2022-11-27T13:22:58.590Z,100935.94
2022-11-27T13:26:05.945Z,100944.38
2022-11-27T13:29:16.667Z,100928.31
2022-11-27T13:32:22.703Z,100924.63
2022-11-27T13:35:30.464Z,100917.25
2022-11-27T13:38:37.467Z,100913.84
2022-11-27T13:41:43.729Z,100903.13
2022-11-27T13:44:55.806Z,100899.66
2022-11-27T13:48:02.160Z,100904.94
2022-11-27T13:51:06.945Z,100898.63
2022-11-27T13:54:13.997Z,100890.38
2022-11-27T13:57:18.701Z,100896.75
2022-11-27T14:00:32.775Z,100878.66
2022-11-27T14:03:36.551Z,100876.16
2022-11-27T14:06:39.822Z,100871.66
2022-11-27T14:09:48.131Z,100859.22
2022-11-27T14:12:54.974Z,100859.16
2022-11-27T14:16:04.800Z,100878.88
2022-11-27T14:19:28.220Z,100862.75
2022-11-27T14:23:07.233Z,100872.75
2022-11-27T14:26:19.986Z,100861.72
2022-11-27T14:29:23.871Z,100871.09
2022-11-27T14:32:36.517Z,100877.31
2022-11-27T14:35:41.789Z,100866.78
2022-11-27T14:38:48.870Z,100854.22
2022-11-27T14:42:00.055Z,100860.69
2022-11-27T14:45:05.537Z,100832.50
2022-11-27T14:48:08.266Z,100827.97
2022-11-27T14:51:17.270Z,100821.94
2022-11-27T14:54:25.543Z,100806.38
2022-11-27T14:57:31.424Z,100804.53
2022-11-27T15:00:34.168Z,100794.97
2022-11-27T15:03:37.075Z,100795.41
2022-11-27T15:06:42.906Z,100794.50
2022-11-27T15:09:48.414Z,100801.81
2022-11-27T15:12:52.996Z,100756.50
2022-11-27T15:16:01.877Z,100788.38
2022-11-27T15:19:07.100Z,100783.00
2022-11-27T15:22:17.773Z,100779.31
2022-11-27T15:25:36.389Z,100780.16
2022-11-27T15:28:41.938Z,100754.31
2022-11-27T15:31:52.001Z,100778.34
2022-11-27T15:34:55.378Z,100776.63
2022-11-27T15:38:04.206Z,100770.28
2022-11-27T15:41:06.955Z,100773.94
2022-11-27T15:44:11.225Z,100782.06
2022-11-27T15:47:23.453Z,100782.94
2022-11-27T15:50:26.358Z,100772.09
2022-11-27T15:53:29.118Z,100766.84
2022-11-27T15:56:31.788Z,100773.03
2022-11-27T15:59:35.892Z,100762.38
2022-11-27T16:02:38.770Z,100751.44
2022-11-27T16:05:41.606Z,100738.94
2022-11-27T16:08:44.413Z,100730.00
2022-11-27T16:11:47.299Z,100719.28
2022-11-27T16:14:51.535Z,100718.28
2022-11-27T16:17:54.295Z,100715.47
2022-11-27T16:20:57.003Z,100689.47
2022-11-27T16:24:00.500Z,100693.06
2022-11-27T16:27:03.528Z,100699.94
2022-11-27T16:30:09.247Z,100694.72
2022-11-27T16:33:11.882Z,100691.13
2022-11-27T16:36:17.002Z,100703.53
2022-11-27T16:39:19.842Z,100715.19
2022-11-27T16:42:22.614Z,100705.31
2022-11-27T16:45:26.691Z,100697.91
2022-11-27T16:48:29.439Z,100716.06
2022-11-27T16:51:33.455Z,100715.19
2022-11-27T16:54:36.265Z,100705.31
2022-11-27T16:57:39.436Z,100705.41
2022-11-27T17:00:43.575Z,100705.25
2022-11-27T17:03:46.380Z,100706.13
2022-11-27T17:06:50.501Z,100707.19
2022-11-27T17:09:53.217Z,100712.66
2022-11-27T17:12:55.963Z,100716.34
2022-11-27T17:16:03.037Z,100702.91
2022-11-27T17:19:05.863Z,100699.34
2022-11-27T17:22:08.793Z,100688.84
2022-11-27T17:25:11.523Z,100687.25
2022-11-27T17:28:14.218Z,100687.28
2022-11-27T17:31:20.296Z,100666.53
2022-11-27T17:34:23.077Z,100676.69
2022-11-27T17:37:25.793Z,100663.47
2022-11-27T17:40:30.605Z,100629.59
2022-11-27T17:43:33.379Z,100627.06
2022-11-27T17:46:39.949Z,100619.72
2022-11-27T17:49:42.835Z,100629.81
2022-11-27T17:52:45.837Z,100632.41
2022-11-27T17:55:48.729Z,100644.06
2022-11-27T17:58:51.402Z,100645.69
2022-11-27T18:01:55.608Z,100647.47
2022-11-27T18:04:58.319Z,100644.72
2022-11-27T18:08:01.115Z,100641.91
2022-11-27T18:11:06.126Z,100641.75
2022-11-27T18:14:08.822Z,100637.22
2022-11-27T18:17:17.069Z,100635.44
2022-11-27T18:20:19.915Z,100630.16
2022-11-27T18:23:23.081Z,100630.13
2022-11-27T18:26:45.408Z,100607.66
2022-11-27T18:29:50.004Z,100602.00
2022-11-27T18:32:54.070Z,100599.66
2022-11-27T18:35:56.748Z,100587.28
2022-11-27T18:38:59.918Z,100584.94
2022-11-27T18:42:05.686Z,100569.69
2022-11-27T18:45:31.347Z,100581.84
2022-11-27T18:48:34.757Z,100571.28
2022-11-27T18:51:37.644Z,100571.31
2022-11-27T18:54:40.444Z,100564.16
2022-11-27T18:57:43.683Z,100558.94
2022-11-27T19:00:46.426Z,100564.16
2022-11-27T19:03:50.999Z,100551.75
2022-11-27T19:06:53.707Z,100573.81
2022-11-27T19:09:56.587Z,100571.56
2022-11-27T19:12:59.305Z,100584.22
2022-11-27T19:16:06.146Z,100583.41
2022-11-27T19:19:49.295Z,100582.66
2022-11-27T19:22:33.483Z,100581.50
2022-11-27T19:25:38.629Z,100577.28
2022-11-27T19:28:41.806Z,100580.94
2022-11-27T19:31:44.594Z,100587.16
2022-11-27T19:34:50.510Z,100574.72
2022-11-27T19:37:53.716Z,100569.41
2022-11-27T19:40:56.635Z,100568.44
2022-11-27T19:44:01.114Z,100559.47
2022-11-27T19:47:04.163Z,100563.97
2022-11-27T19:50:09.217Z,100549.59
2022-11-27T19:53:12.268Z,100551.28
2022-11-27T19:56:15.011Z,100550.16
2022-11-27T19:59:21.528Z,100548.25
2022-11-27T20:02:30.055Z,100540.34
2022-11-27T20:05:34.306Z,100523.50
2022-11-27T20:08:37.089Z,100526.31
2022-11-27T20:11:39.817Z,100509.19
2022-11-27T20:14:42.832Z,100500.94
2022-11-27T20:17:45.838Z,100514.22
2022-11-27T20:20:50.230Z,100508.75
2022-11-27T20:23:54.840Z,100510.63
2022-11-27T20:26:57.628Z,100497.09
2022-11-27T20:30:01.005Z,100473.13
2022-11-27T20:33:07.552Z,100494.78
2022-11-27T20:36:16.527Z,100498.38
2022-11-27T20:39:21.912Z,100491.59
2022-11-27T20:42:24.826Z,100482.59
2022-11-27T20:45:28.193Z,100483.72
2022-11-27T20:48:31.546Z,100477.56
2022-11-27T20:51:35.816Z,100482.09
2022-11-27T20:54:38.587Z,100484.69
2022-11-27T20:57:41.845Z,100481.81
2022-11-27T21:00:44.858Z,100476.16
2022-11-27T21:03:49.677Z,100465.06
2022-11-27T21:06:53.967Z,100460.34
2022-11-27T21:09:56.922Z,100458.47
2022-11-27T21:12:59.664Z,100476.88
2022-11-27T21:16:02.550Z,100461.22
2022-11-27T21:19:07.690Z,100466.69
2022-11-27T21:22:11.742Z,100460.19
2022-11-27T21:25:14.507Z,100458.38
2022-11-27T21:28:17.527Z,100456.81
2022-11-27T21:31:22.272Z,100452.38
2022-11-27T21:34:26.190Z,100442.25
2022-11-27T21:37:30.269Z,100433.25
2022-11-27T21:40:33.244Z,100422.72
2022-11-27T21:43:36.926Z,100414.66
2022-11-27T21:46:39.918Z,100409.34
2022-11-27T21:49:43.980Z,100409.78
2022-11-27T21:52:48.140Z,100427.19
2022-11-27T21:55:50.826Z,100417.25
2022-11-27T21:58:53.869Z,100415.38
2022-11-27T22:01:57.284Z,100413.81
2022-11-27T22:05:00.314Z,100408.56
2022-11-27T22:08:05.386Z,100380.22
2022-11-27T22:11:09.180Z,100411.53
2022-11-27T22:14:11.974Z,100398.16
2022-11-27T22:17:14.822Z,100399.34
2022-11-27T22:20:17.860Z,100404.09
2022-11-27T22:23:22.065Z,100414.19
2022-11-27T22:26:25.672Z,100414.19
2022-11-27T22:29:28.594Z,100430.31
2022-11-27T22:32:31.261Z,100435.56
2022-11-27T22:35:33.975Z,100429.28
2022-11-27T22:38:38.029Z,100420.31
2022-11-27T22:41:41.897Z,100415.03
2022-11-27T22:44:44.950Z,100401.63
2022-11-27T22:47:47.781Z,100395.38
2022-11-27T22:50:56.679Z,100393.59
2022-11-27T22:54:01.947Z,100393.56
2022-11-27T22:57:04.780Z,100396.16
2022-11-27T23:00:09.839Z,100412.25
2022-11-27T23:03:12.541Z,100402.41
2022-11-27T23:06:17.216Z,100395.25
2022-11-27T23:09:21.231Z,100390.81
2022-11-27T23:12:23.883Z,100388.28
2022-11-27T23:15:26.571Z,100387.53
2022-11-27T23:18:29.285Z,100365.31
2022-11-27T23:21:35.221Z,100358.69
2022-11-27T23:24:39.594Z,100342.25
2022-11-27T23:27:43.940Z,100332.44
2022-11-27T23:30:46.675Z,100332.41
2022-11-27T23:33:49.596Z,100323.25
2022-11-27T23:36:52.390Z,100267.97
2022-11-27T23:39:56.476Z,100287.56
2022-11-27T23:42:59.249Z,100287.16
2022-11-27T23:46:03.613Z,100270.28
2022-11-27T23:49:06.453Z,100274.78
2022-11-27T23:52:14.296Z,100278.50
2022-11-27T23:55:20.985Z,100282.66
2022-11-27T23:58:23.760Z,100286.13
